Whitcomb Heights, Indiana
Current Conditions -  °F | °C
As of 6:53 AM on Monday 22 Dec 2014 (Local Time) from KHUF Reporting Station
Overcast Overcast  
Wind Chill: 29°   Ceiling: 6500
Heat Index: 34°   Visibility: 10mi
Dew Point: 28°   Wind: 6mph
Humidity: 79%   Direction: 120°ESE
Pressure: 29.94"   Gusts: NA
Location:  39.5107°N, 87.4772°W
Report Text: KHUF 221153Z 12005KT 10SM OVC065 01/M02 A2994 RMK AO2 SLP144 T00111022 10011 21022 56015
Loading
Personal Weather Stations






























Interactive Weather Map New forecast layout! Learn more

10-Day Weather Forecast

Advertisements
Track Severe Weather on mobile